createdAt,value
2023-05-14T00:00:09.476Z,9.50
2023-05-14T00:01:11.968Z,7.80
2023-05-14T00:02:14.588Z,6.60
2023-05-14T00:03:17.308Z,8.50
2023-05-14T00:04:19.605Z,8.60
2023-05-14T00:05:23.528Z,10.70
2023-05-14T00:06:27.268Z,9.60
2023-05-14T00:07:30.281Z,11.60
2023-05-14T00:08:33.469Z,10.80
2023-05-14T00:09:36.405Z,11.00
2023-05-14T00:10:38.853Z,10.10
2023-05-14T00:11:41.533Z,11.30
2023-05-14T00:12:44.095Z,9.30
2023-05-14T00:13:46.330Z,9.40
2023-05-14T00:14:48.717Z,8.80
2023-05-14T00:15:51.091Z,9.00
2023-05-14T00:16:53.808Z,9.20
2023-05-14T00:17:56.089Z,8.90
2023-05-14T00:18:58.900Z,11.00
2023-05-14T00:20:01.307Z,10.45
2023-05-14T00:21:03.443Z,10.30
2023-05-14T00:22:05.860Z,10.20
2023-05-14T00:23:08.469Z,11.60
2023-05-14T00:24:10.620Z,9.60
2023-05-14T00:25:13.090Z,9.60
2023-05-14T00:26:15.701Z,8.30
2023-05-14T00:27:19.192Z,9.70
2023-05-14T00:28:21.811Z,13.10
2023-05-14T00:29:24.444Z,10.30
2023-05-14T00:30:26.815Z,12.70
2023-05-14T00:31:29.115Z,8.10
2023-05-14T00:32:31.920Z,9.09
2023-05-14T00:33:34.653Z,9.50
2023-05-14T00:34:37.034Z,9.82
2023-05-14T00:35:39.409Z,7.80
2023-05-14T00:36:42.071Z,11.10
2023-05-14T00:37:44.279Z,11.10
2023-05-14T00:38:46.473Z,11.50
2023-05-14T00:39:48.688Z,12.20
2023-05-14T00:40:51.651Z,13.60
2023-05-14T00:41:54.085Z,14.50
2023-05-14T00:42:56.495Z,12.30
2023-05-14T00:43:58.964Z,14.90
2023-05-14T00:45:01.214Z,11.50
2023-05-14T00:46:03.536Z,13.30
2023-05-14T00:47:06.905Z,14.90
2023-05-14T00:48:09.354Z,13.10
2023-05-14T00:49:11.707Z,13.50
2023-05-14T00:50:15.778Z,13.80
2023-05-14T00:51:18.573Z,9.40
2023-05-14T00:52:21.536Z,12.64
2023-05-14T00:53:24.443Z,14.00
2023-05-14T00:54:27.758Z,13.36
2023-05-14T00:55:31.218Z,13.10
2023-05-14T00:56:35.016Z,14.40
2023-05-14T00:57:37.430Z,12.50
2023-05-14T00:58:40.407Z,13.50
2023-05-14T00:59:42.882Z,12.50
2023-05-14T01:00:45.212Z,12.70
2023-05-14T01:01:48.260Z,11.90
2023-05-14T01:02:50.620Z,11.40
2023-05-14T01:03:54.290Z,14.70
2023-05-14T01:04:57.565Z,9.50
2023-05-14T01:06:12.571Z,11.20
2023-05-14T01:07:27.149Z,7.40
2023-05-14T01:09:02.013Z,13.40
2023-05-14T01:10:17.206Z,15.10
2023-05-14T01:11:25.911Z,14.10
2023-05-14T01:12:34.690Z,10.90
2023-05-14T01:13:46.426Z,4.40
2023-05-14T01:15:02.277Z,10.60
2023-05-14T01:16:08.537Z,6.70
2023-05-14T01:17:13.794Z,8.10
2023-05-14T01:18:18.932Z,8.60
2023-05-14T01:19:24.942Z,10.50
2023-05-14T01:20:27.345Z,10.40
2023-05-14T01:21:40.133Z,8.80
2023-05-14T01:22:42.396Z,9.00
2023-05-14T01:23:44.501Z,7.50
2023-05-14T01:24:47.498Z,7.60
2023-05-14T01:25:50.108Z,7.91
2023-05-14T01:26:54.954Z,8.00
2023-05-14T01:28:22.817Z,9.40
2023-05-14T01:29:28.108Z,7.50
2023-05-14T01:30:37.126Z,8.20
2023-05-14T01:31:43.388Z,7.90
2023-05-14T01:32:49.224Z,5.80
2023-05-14T01:33:54.108Z,8.00
2023-05-14T01:34:59.843Z,8.70
2023-05-14T01:36:04.348Z,10.00
2023-05-14T01:37:09.549Z,9.80
2023-05-14T01:38:14.603Z,10.00
2023-05-14T01:39:18.375Z,9.10
2023-05-14T01:40:21.458Z,9.30
2023-05-14T01:41:26.395Z,9.00
2023-05-14T01:42:29.259Z,7.90
2023-05-14T01:43:32.356Z,5.00
2023-05-14T01:44:35.982Z,3.10
2023-05-14T01:45:38.683Z,5.60
2023-05-14T01:46:41.347Z,4.55
2023-05-14T01:47:45.011Z,3.82
2023-05-14T01:48:47.237Z,4.40
2023-05-14T01:49:50.133Z,4.50
2023-05-14T01:50:53.588Z,4.70
2023-05-14T01:51:56.048Z,5.00
2023-05-14T01:52:58.248Z,4.00
2023-05-14T01:54:00.426Z,3.50
2023-05-14T01:55:04.552Z,3.50
2023-05-14T01:56:07.132Z,3.20
2023-05-14T01:57:09.464Z,3.70
2023-05-14T01:58:11.951Z,3.00
2023-05-14T01:59:14.247Z,3.10
2023-05-14T02:00:18.140Z,4.60
2023-05-14T02:01:20.925Z,4.50
2023-05-14T02:02:23.340Z,4.36
2023-05-14T02:03:27.090Z,3.70
2023-05-14T02:04:30.004Z,5.60
2023-05-14T02:05:32.305Z,4.20
2023-05-14T02:06:35.889Z,5.40
2023-05-14T02:07:38.659Z,4.20
2023-05-14T02:08:40.826Z,6.00
2023-05-14T02:09:43.127Z,4.80
2023-05-14T02:10:46.063Z,5.70
2023-05-14T02:11:48.437Z,6.09
2023-05-14T02:12:51.080Z,6.30
2023-05-14T02:13:54.566Z,4.10
2023-05-14T02:14:57.180Z,5.60
2023-05-14T02:15:59.669Z,6.50
2023-05-14T02:17:02.975Z,6.20
2023-05-14T02:18:05.471Z,5.50
2023-05-14T02:19:08.069Z,6.50
2023-05-14T02:20:11.443Z,6.90
2023-05-14T02:21:13.708Z,6.90
2023-05-14T02:22:15.971Z,8.60
2023-05-14T02:23:18.183Z,6.20
2023-05-14T02:24:21.359Z,8.18
2023-05-14T02:25:23.689Z,8.50
2023-05-14T02:26:26.010Z,8.70
2023-05-14T02:27:28.325Z,7.70
2023-05-14T02:28:30.854Z,6.00
2023-05-14T02:29:32.966Z,6.50
2023-05-14T02:30:35.399Z,9.00
2023-05-14T02:31:37.663Z,8.30
2023-05-14T02:32:40.314Z,6.20
2023-05-14T02:33:42.919Z,10.64
2023-05-14T02:34:45.495Z,7.20
2023-05-14T02:35:48.070Z,8.18
2023-05-14T02:36:50.495Z,6.30
2023-05-14T02:37:53.734Z,6.50
2023-05-14T02:38:59.016Z,6.50
2023-05-14T02:40:01.405Z,7.60
2023-05-14T02:41:03.955Z,7.30
2023-05-14T02:42:07.658Z,8.40
2023-05-14T02:43:10.163Z,7.10
2023-05-14T02:44:12.393Z,8.30
2023-05-14T02:45:14.936Z,8.00
2023-05-14T02:46:17.422Z,7.20
2023-05-14T02:47:19.980Z,8.10
2023-05-14T02:48:22.626Z,7.00
2023-05-14T02:49:26.000Z,7.50
2023-05-14T02:50:28.584Z,9.60
2023-05-14T02:51:31.480Z,7.80
2023-05-14T02:52:33.849Z,6.45
2023-05-14T02:53:36.170Z,7.40
2023-05-14T02:54:38.473Z,9.20
2023-05-14T02:55:40.796Z,8.20
2023-05-14T02:56:43.141Z,9.40
2023-05-14T02:57:46.173Z,8.10
2023-05-14T02:58:49.587Z,6.82
2023-05-14T02:59:52.083Z,9.50
2023-05-14T03:00:55.162Z,9.50
2023-05-14T03:01:58.779Z,4.40
2023-05-14T03:03:01.448Z,9.00
2023-05-14T03:04:04.564Z,6.18
2023-05-14T03:05:07.844Z,8.09
2023-05-14T03:06:10.561Z,7.40
2023-05-14T03:07:13.079Z,7.00
2023-05-14T03:08:15.280Z,9.50
2023-05-14T03:09:17.386Z,9.00
2023-05-14T03:10:20.534Z,8.80
2023-05-14T03:11:23.013Z,8.80
2023-05-14T03:12:25.201Z,9.00
2023-05-14T03:13:27.639Z,10.60
2023-05-14T03:14:30.144Z,7.80
2023-05-14T03:15:32.731Z,8.80
2023-05-14T03:16:35.112Z,9.60
2023-05-14T03:17:37.409Z,9.70
2023-05-14T03:18:40.190Z,7.60
2023-05-14T03:19:44.535Z,8.30
2023-05-14T03:20:46.917Z,8.90
2023-05-14T03:21:50.524Z,9.30
2023-05-14T03:22:53.830Z,7.80
2023-05-14T03:23:56.198Z,10.20
2023-05-14T03:24:58.700Z,10.50
2023-05-14T03:26:01.709Z,10.60
2023-05-14T03:27:04.033Z,7.70
2023-05-14T03:28:07.036Z,8.20
2023-05-14T03:29:10.173Z,8.18
2023-05-14T03:30:14.030Z,9.10
2023-05-14T03:31:16.229Z,8.30
2023-05-14T03:32:18.957Z,10.30
2023-05-14T03:33:22.625Z,6.40
2023-05-14T03:34:25.041Z,8.90
2023-05-14T03:35:27.042Z,8.60
2023-05-14T03:36:29.628Z,8.60
2023-05-14T03:37:31.887Z,7.00
2023-05-14T03:38:34.026Z,9.50
2023-05-14T03:39:37.452Z,8.90
2023-05-14T03:40:40.248Z,8.20
2023-05-14T03:41:42.649Z,8.30
2023-05-14T03:42:45.041Z,9.10
2023-05-14T03:43:47.449Z,5.40
2023-05-14T03:44:49.782Z,7.60
2023-05-14T03:45:52.123Z,10.10
2023-05-14T03:46:55.368Z,9.60
2023-05-14T03:47:57.808Z,8.70
2023-05-14T03:49:00.304Z,9.50
2023-05-14T03:50:03.489Z,8.18
2023-05-14T03:51:06.556Z,9.00
2023-05-14T03:52:10.713Z,9.30
2023-05-14T03:53:13.689Z,7.80
2023-05-14T03:54:15.968Z,5.82
2023-05-14T03:55:19.830Z,8.30
2023-05-14T03:56:22.332Z,9.82
2023-05-14T03:57:24.670Z,9.10
2023-05-14T03:58:26.685Z,8.50
2023-05-14T03:59:29.033Z,9.40
2023-05-14T04:00:32.680Z,8.70
2023-05-14T04:01:35.351Z,9.10
2023-05-14T04:02:37.685Z,6.10
2023-05-14T04:03:41.197Z,10.10
2023-05-14T04:04:43.994Z,9.30
2023-05-14T04:05:46.383Z,9.70
2023-05-14T04:06:48.807Z,10.50
2023-05-14T04:07:51.953Z,8.60
2023-05-14T04:08:55.509Z,9.60
2023-05-14T04:09:59.581Z,10.30
2023-05-14T04:11:02.873Z,9.80
2023-05-14T04:12:07.281Z,9.00
2023-05-14T04:13:09.748Z,10.70
2023-05-14T04:14:14.977Z,9.10
2023-05-14T04:15:20.123Z,7.60
2023-05-14T04:16:22.710Z,10.90
2023-05-14T04:17:25.538Z,11.70
2023-05-14T04:18:27.968Z,8.80
2023-05-14T04:19:30.804Z,10.10
2023-05-14T04:20:33.030Z,9.50
2023-05-14T04:21:35.360Z,9.80
2023-05-14T04:22:38.663Z,9.70
2023-05-14T04:23:40.944Z,7.20
2023-05-14T04:24:44.012Z,8.90
2023-05-14T04:25:46.272Z,8.80
2023-05-14T04:26:49.104Z,7.70
2023-05-14T04:27:51.429Z,7.09
2023-05-14T04:28:53.567Z,6.00
2023-05-14T04:29:56.074Z,6.50
2023-05-14T04:30:58.649Z,6.60
2023-05-14T04:32:01.113Z,8.50
2023-05-14T04:33:04.651Z,7.30
2023-05-14T04:34:06.861Z,8.60
2023-05-14T04:35:09.896Z,6.30
2023-05-14T04:36:12.178Z,8.80
2023-05-14T04:37:14.392Z,7.90
2023-05-14T04:38:17.864Z,8.30
2023-05-14T04:39:20.187Z,7.20
2023-05-14T04:40:22.536Z,7.30
2023-05-14T04:41:25.626Z,7.82
2023-05-14T04:42:27.824Z,7.70
2023-05-14T04:43:30.155Z,7.00
2023-05-14T04:44:37.550Z,4.50
2023-05-14T04:45:41.035Z,7.00
2023-05-14T04:46:43.326Z,7.10
2023-05-14T04:47:46.156Z,9.00
2023-05-14T04:48:49.787Z,7.70
2023-05-14T04:49:52.141Z,6.90
2023-05-14T04:50:54.352Z,8.30
2023-05-14T04:51:56.485Z,6.80
2023-05-14T04:52:58.699Z,5.90
2023-05-14T04:54:01.017Z,7.70
2023-05-14T04:55:03.637Z,6.60
2023-05-14T04:56:06.748Z,7.40
2023-05-14T04:57:09.043Z,8.00
2023-05-14T04:58:11.651Z,6.80
2023-05-14T04:59:13.932Z,6.73
2023-05-14T05:00:17.106Z,8.10
2023-05-14T05:01:19.515Z,6.30
2023-05-14T05:02:21.809Z,5.00
2023-05-14T05:03:23.984Z,5.50
2023-05-14T05:04:27.843Z,5.90
2023-05-14T05:05:30.332Z,5.40
2023-05-14T05:06:32.634Z,8.80
2023-05-14T05:07:35.849Z,7.10
2023-05-14T05:08:38.114Z,7.50
2023-05-14T05:09:40.336Z,7.50
2023-05-14T05:10:42.922Z,6.50
2023-05-14T05:11:44.801Z,3.70
2023-05-14T05:12:48.146Z,6.90
2023-05-14T05:13:50.399Z,7.30
2023-05-14T05:14:52.634Z,6.90
2023-05-14T05:15:55.011Z,7.70
2023-05-14T05:16:58.044Z,6.00
2023-05-14T05:18:01.491Z,7.00
2023-05-14T05:19:03.868Z,8.40
2023-05-14T05:20:09.656Z,7.80
2023-05-14T05:21:12.100Z,9.10
2023-05-14T05:22:15.593Z,7.50
2023-05-14T05:23:18.971Z,8.40
2023-05-14T05:24:21.232Z,8.80
2023-05-14T05:25:23.453Z,8.70
2023-05-14T05:26:27.555Z,5.70
2023-05-14T05:27:30.252Z,9.30
2023-05-14T05:28:32.488Z,7.50
2023-05-14T05:29:36.057Z,8.90
2023-05-14T05:30:40.180Z,7.90
2023-05-14T05:31:42.568Z,6.40
2023-05-14T05:32:45.217Z,7.00
2023-05-14T05:33:47.819Z,6.00
2023-05-14T05:34:51.421Z,5.70
2023-05-14T05:35:53.797Z,9.90
2023-05-14T05:36:57.084Z,8.60
2023-05-14T05:38:01.554Z,5.00
2023-05-14T05:39:03.690Z,7.50
2023-05-14T05:40:08.567Z,8.50
2023-05-14T05:41:10.924Z,8.50
2023-05-14T05:42:13.493Z,10.20
2023-05-14T05:43:16.125Z,8.80
2023-05-14T05:44:18.260Z,8.50
2023-05-14T05:45:20.573Z,7.60
2023-05-14T05:46:22.961Z,10.30
2023-05-14T05:47:25.144Z,7.90
2023-05-14T05:48:27.718Z,7.80
2023-05-14T05:49:30.370Z,6.10
2023-05-14T05:50:32.690Z,9.20
2023-05-14T05:51:34.934Z,9.90
2023-05-14T05:52:38.104Z,8.00
2023-05-14T05:53:40.777Z,8.10
2023-05-14T05:54:42.807Z,7.10
2023-05-14T05:55:46.156Z,8.20
2023-05-14T05:56:48.416Z,8.70
2023-05-14T05:57:50.761Z,9.20
2023-05-14T05:58:53.077Z,7.90
2023-05-14T05:59:55.759Z,6.80
2023-05-14T06:00:59.793Z,8.40
2023-05-14T06:02:02.102Z,8.20
2023-05-14T06:03:04.297Z,8.70
2023-05-14T06:04:06.752Z,8.70
2023-05-14T06:05:10.321Z,9.10
2023-05-14T06:06:12.530Z,9.70
2023-05-14T06:07:15.704Z,8.70
2023-05-14T06:08:18.356Z,8.80
2023-05-14T06:09:20.723Z,8.90
2023-05-14T06:10:23.075Z,7.80
2023-05-14T06:11:26.123Z,7.60
2023-05-14T06:12:28.346Z,7.30
2023-05-14T06:13:31.113Z,9.20
2023-05-14T06:14:33.319Z,9.80
2023-05-14T06:15:35.519Z,7.70
2023-05-14T06:16:37.865Z,8.50
2023-05-14T06:17:41.000Z,7.10
2023-05-14T06:18:43.192Z,8.10
2023-05-14T06:19:46.900Z,5.40
2023-05-14T06:20:49.348Z,9.60
2023-05-14T06:21:52.144Z,9.20
2023-05-14T06:22:54.347Z,9.50
2023-05-14T06:23:56.340Z,7.60
2023-05-14T06:24:59.102Z,6.80
2023-05-14T06:26:01.127Z,8.40
2023-05-14T06:27:03.878Z,3.90
2023-05-14T06:28:05.976Z,7.50
2023-05-14T06:29:07.989Z,6.80
2023-05-14T06:30:12.293Z,5.70
2023-05-14T06:31:14.652Z,8.40
2023-05-14T06:32:17.572Z,6.50
2023-05-14T06:33:23.462Z,9.00
2023-05-14T06:34:25.723Z,8.10
2023-05-14T06:35:28.325Z,7.40
2023-05-14T06:36:30.742Z,5.00
2023-05-14T06:37:33.858Z,6.70
2023-05-14T06:38:36.512Z,7.30
2023-05-14T06:39:41.994Z,8.40
2023-05-14T06:40:44.932Z,7.50
2023-05-14T06:41:47.081Z,7.09
2023-05-14T06:42:50.270Z,7.10
2023-05-14T06:43:53.029Z,6.20
2023-05-14T06:44:55.446Z,9.80
2023-05-14T06:45:57.575Z,9.70
2023-05-14T06:46:59.891Z,5.30
2023-05-14T06:48:03.147Z,7.60
2023-05-14T06:49:05.759Z,7.60
2023-05-14T06:50:10.938Z,7.82
2023-05-14T06:51:13.736Z,7.50
2023-05-14T06:52:17.367Z,8.40
2023-05-14T06:53:20.027Z,6.90
2023-05-14T06:54:22.461Z,7.60
2023-05-14T06:55:25.220Z,7.70
2023-05-14T06:56:28.677Z,8.40
2023-05-14T06:57:31.497Z,8.60
2023-05-14T06:58:33.766Z,4.27
2023-05-14T06:59:35.862Z,3.40
2023-05-14T07:00:38.237Z,8.40
2023-05-14T07:01:40.686Z,8.60
2023-05-14T07:02:43.017Z,8.40
2023-05-14T07:03:45.275Z,7.70
2023-05-14T07:04:47.676Z,6.80
2023-05-14T07:05:50.594Z,7.45
2023-05-14T07:06:52.813Z,8.80
2023-05-14T07:07:56.168Z,6.60
2023-05-14T07:08:59.166Z,8.10
2023-05-14T07:10:01.755Z,6.40
2023-05-14T07:11:04.237Z,5.20
2023-05-14T07:12:07.819Z,5.20
2023-05-14T07:13:10.634Z,7.70
2023-05-14T07:14:12.938Z,6.36
2023-05-14T07:15:15.941Z,7.70
2023-05-14T07:16:18.629Z,8.50
2023-05-14T07:17:21.151Z,8.00
2023-05-14T07:18:23.689Z,6.40
2023-05-14T07:19:27.805Z,7.00
2023-05-14T07:20:29.980Z,5.90
2023-05-14T07:21:33.527Z,6.70
2023-05-14T07:22:35.741Z,6.90
2023-05-14T07:23:37.985Z,7.40
2023-05-14T07:24:40.673Z,7.20
2023-05-14T07:25:43.249Z,6.70
2023-05-14T07:26:45.758Z,8.45
2023-05-14T07:27:47.868Z,7.20
2023-05-14T07:28:50.096Z,7.10
2023-05-14T07:29:52.407Z,6.00
2023-05-14T07:30:54.644Z,6.60
2023-05-14T07:31:57.963Z,7.40
2023-05-14T07:33:00.538Z,6.70
2023-05-14T07:34:02.813Z,7.80
2023-05-14T07:35:06.673Z,7.80
2023-05-14T07:36:10.471Z,8.20
2023-05-14T07:37:12.675Z,7.00
2023-05-14T07:38:15.394Z,7.30
2023-05-14T07:39:17.607Z,6.90
2023-05-14T07:40:20.224Z,6.20
2023-05-14T07:41:22.435Z,6.10
2023-05-14T07:42:35.120Z,5.20
2023-05-14T07:43:29.120Z,7.00
2023-05-14T07:44:31.897Z,6.10
2023-05-14T07:45:37.353Z,7.80
2023-05-14T07:46:40.396Z,8.20
2023-05-14T07:47:42.895Z,7.00
2023-05-14T07:48:45.218Z,8.80
2023-05-14T07:49:48.663Z,8.60
2023-05-14T07:50:52.372Z,6.10
2023-05-14T07:51:54.647Z,8.50
2023-05-14T07:52:57.068Z,7.20
2023-05-14T07:54:00.069Z,8.70
2023-05-14T07:55:03.478Z,8.91
2023-05-14T07:56:06.951Z,8.50
2023-05-14T07:57:12.207Z,6.70
2023-05-14T07:58:14.451Z,7.70
2023-05-14T07:59:17.484Z,9.10
2023-05-14T08:00:19.733Z,7.90
2023-05-14T08:01:22.142Z,8.50
2023-05-14T08:02:24.296Z,8.20
2023-05-14T08:03:26.757Z,7.20
2023-05-14T08:04:29.273Z,9.30
2023-05-14T08:05:32.360Z,9.10
2023-05-14T08:06:34.932Z,8.00
2023-05-14T08:07:37.261Z,8.00
2023-05-14T08:08:39.475Z,8.00
2023-05-14T08:09:41.777Z,6.00
2023-05-14T08:10:44.027Z,6.70
2023-05-14T08:11:46.370Z,5.40
2023-05-14T08:12:48.628Z,8.80
2023-05-14T08:13:51.892Z,7.80
2023-05-14T08:14:55.172Z,7.20
2023-05-14T08:15:57.777Z,6.30
2023-05-14T08:17:00.256Z,7.10
2023-05-14T08:18:03.287Z,6.50
2023-05-14T08:19:05.774Z,7.50
2023-05-14T08:20:11.646Z,6.82
2023-05-14T08:21:14.384Z,4.10
2023-05-14T08:22:16.822Z,5.27
2023-05-14T08:23:19.215Z,5.20
2023-05-14T08:24:22.461Z,6.40
2023-05-14T08:25:24.923Z,7.70
2023-05-14T08:26:27.225Z,5.40
2023-05-14T08:27:29.449Z,5.40
2023-05-14T08:28:31.866Z,6.20
2023-05-14T08:29:35.263Z,6.90
2023-05-14T08:30:37.688Z,5.60
2023-05-14T08:31:40.991Z,5.20
2023-05-14T08:32:43.459Z,7.20
2023-05-14T08:33:46.762Z,5.10
2023-05-14T08:34:49.035Z,7.30
2023-05-14T08:35:54.222Z,6.10
2023-05-14T08:36:56.603Z,7.00
2023-05-14T08:37:58.834Z,6.90
2023-05-14T08:39:00.853Z,7.40
2023-05-14T08:40:03.232Z,10.00
2023-05-14T08:41:06.178Z,6.90
2023-05-14T08:42:12.407Z,4.00
2023-05-14T08:43:18.562Z,7.00
2023-05-14T08:44:26.948Z,6.70
2023-05-14T08:45:34.038Z,4.80
2023-05-14T08:46:38.288Z,4.70
2023-05-14T08:47:41.135Z,5.90
2023-05-14T08:48:47.638Z,6.60
2023-05-14T08:49:56.474Z,6.30
2023-05-14T08:50:59.495Z,6.30
2023-05-14T08:52:02.176Z,9.20
2023-05-14T08:53:04.659Z,6.10
2023-05-14T08:54:07.107Z,6.50
2023-05-14T08:55:11.452Z,7.09
2023-05-14T08:56:17.935Z,7.10
2023-05-14T08:57:22.495Z,7.40
2023-05-14T08:58:26.131Z,6.40
2023-05-14T08:59:28.322Z,8.50
2023-05-14T09:00:31.660Z,6.30
2023-05-14T09:01:35.367Z,5.80
2023-05-14T09:02:39.869Z,6.30
2023-05-14T09:03:43.281Z,7.10
2023-05-14T09:04:47.221Z,6.20
2023-05-14T09:05:51.654Z,5.40
2023-05-14T09:06:55.270Z,5.20
2023-05-14T09:07:57.568Z,5.30
2023-05-14T09:09:00.053Z,6.00
2023-05-14T09:10:03.294Z,5.90
2023-05-14T09:11:09.459Z,6.20
2023-05-14T09:12:12.755Z,7.60
2023-05-14T09:13:15.744Z,6.50
2023-05-14T09:14:18.937Z,6.60
2023-05-14T09:15:23.749Z,6.40
2023-05-14T09:16:26.500Z,10.00
2023-05-14T09:17:29.028Z,6.73
2023-05-14T09:18:31.401Z,6.40
2023-05-14T09:19:33.873Z,6.10
2023-05-14T09:20:36.371Z,6.70
2023-05-14T09:21:39.774Z,5.80
2023-05-14T09:22:42.439Z,7.10
2023-05-14T09:23:53.321Z,6.70
2023-05-14T09:26:17.615Z,6.40
2023-05-14T09:27:21.135Z,7.10
2023-05-14T09:28:25.884Z,7.00
2023-05-14T09:29:29.258Z,7.30
2023-05-14T09:30:33.846Z,4.60
2023-05-14T09:31:36.795Z,7.30
2023-05-14T09:32:43.272Z,7.80
2023-05-14T09:33:51.037Z,5.30
2023-05-14T09:34:53.833Z,7.20
2023-05-14T09:35:59.821Z,7.00
2023-05-14T09:37:06.835Z,6.50
2023-05-14T09:38:09.189Z,6.10
2023-05-14T09:39:12.421Z,7.50
2023-05-14T09:40:36.761Z,3.80
2023-05-14T09:41:40.306Z,6.40
2023-05-14T09:42:42.618Z,6.70
2023-05-14T09:43:45.243Z,8.00
2023-05-14T09:44:52.666Z,7.45
2023-05-14T09:45:55.482Z,6.00
2023-05-14T09:47:08.847Z,5.70
2023-05-14T09:48:17.676Z,6.20
2023-05-14T09:49:22.209Z,5.50
2023-05-14T09:50:27.727Z,7.90
2023-05-14T09:51:34.377Z,8.00
2023-05-14T09:52:39.059Z,6.30
2023-05-14T09:53:46.599Z,7.20
2023-05-14T09:54:52.521Z,6.80
2023-05-14T09:55:55.428Z,5.60
2023-05-14T09:56:58.062Z,5.70
2023-05-14T09:58:00.727Z,6.20
2023-05-14T09:59:03.596Z,6.30
2023-05-14T10:00:08.295Z,6.70
2023-05-14T10:01:12.445Z,6.80
2023-05-14T10:02:24.693Z,3.40
2023-05-14T10:03:30.728Z,6.00
2023-05-14T10:04:34.885Z,6.90
2023-05-14T10:05:39.080Z,6.60
2023-05-14T10:06:44.705Z,6.50
2023-05-14T10:07:49.177Z,6.60
2023-05-14T10:08:54.866Z,7.60
2023-05-14T10:10:00.711Z,6.80
2023-05-14T10:11:09.851Z,8.10
2023-05-14T10:12:15.330Z,6.30
2023-05-14T10:13:21.147Z,5.50
2023-05-14T10:14:36.017Z,7.40
2023-05-14T10:15:42.425Z,8.40
2023-05-14T10:16:50.677Z,7.00
2023-05-14T10:17:55.774Z,8.10
2023-05-14T10:19:02.489Z,7.00
2023-05-14T10:20:09.244Z,7.90
2023-05-14T10:21:14.903Z,4.70
2023-05-14T10:22:20.894Z,7.20
2023-05-14T10:23:23.546Z,6.90
2023-05-14T10:24:27.973Z,7.00
2023-05-14T10:25:30.668Z,5.90
2023-05-14T10:26:38.136Z,7.10
2023-05-14T10:27:41.861Z,7.60
2023-05-14T10:28:45.110Z,7.60
2023-05-14T10:29:55.508Z,8.70
2023-05-14T10:31:00.268Z,7.70
2023-05-14T10:32:08.764Z,7.50
2023-05-14T10:33:16.205Z,7.10
2023-05-14T10:36:06.407Z,7.80
2023-05-14T10:37:11.478Z,7.10
2023-05-14T10:38:14.714Z,6.10
2023-05-14T10:39:16.990Z,7.80
2023-05-14T10:40:22.199Z,6.80
2023-05-14T10:41:25.177Z,7.30
2023-05-14T10:42:38.467Z,8.27
2023-05-14T10:43:42.277Z,5.10
2023-05-14T10:44:51.037Z,7.50
2023-05-14T10:45:53.832Z,7.40
2023-05-14T10:46:56.533Z,6.60
2023-05-14T10:47:59.029Z,7.10
2023-05-14T10:49:01.834Z,6.40
2023-05-14T10:50:06.918Z,8.40
2023-05-14T10:51:10.840Z,7.30
2023-05-14T10:52:14.996Z,7.60
2023-05-14T10:53:18.162Z,6.20
2023-05-14T10:54:23.648Z,7.80
2023-05-14T10:55:26.278Z,7.60
2023-05-14T10:56:29.450Z,6.90
2023-05-14T10:57:33.512Z,7.80
2023-05-14T10:58:38.125Z,6.30
2023-05-14T10:59:43.767Z,7.20
2023-05-14T11:00:48.331Z,7.30
2023-05-14T11:01:50.662Z,6.60
2023-05-14T11:02:56.977Z,6.90
2023-05-14T11:04:00.674Z,7.50
2023-05-14T11:05:08.029Z,7.00
2023-05-14T11:06:14.070Z,7.30
2023-05-14T11:07:18.101Z,6.60
2023-05-14T11:08:25.522Z,6.10
2023-05-14T11:09:26.094Z,6.00
2023-05-14T11:10:29.631Z,6.40
2023-05-14T11:11:32.789Z,7.50
2023-05-14T11:12:37.740Z,5.80
2023-05-14T11:13:43.056Z,6.50
2023-05-14T11:14:46.604Z,7.90
2023-05-14T11:15:50.258Z,8.50
2023-05-14T11:16:52.703Z,5.00
2023-05-14T11:17:56.076Z,6.80
2023-05-14T11:19:03.927Z,6.30
2023-05-14T11:20:08.385Z,7.50
2023-05-14T11:21:10.744Z,7.40
2023-05-14T11:22:14.050Z,7.70
2023-05-14T11:23:16.519Z,6.30
2023-05-14T11:24:18.902Z,5.20
2023-05-14T11:25:22.339Z,6.70
2023-05-14T11:26:25.533Z,6.80
2023-05-14T11:27:28.191Z,7.70
2023-05-14T11:28:30.533Z,7.00
2023-05-14T11:29:32.751Z,7.40
2023-05-14T11:30:35.368Z,7.60
2023-05-14T11:31:38.319Z,6.20
2023-05-14T11:32:40.839Z,7.00
2023-05-14T11:33:43.819Z,7.40
2023-05-14T11:34:46.395Z,6.78
2023-05-14T11:35:49.085Z,6.64
2023-05-14T11:36:51.521Z,7.64
2023-05-14T11:37:54.237Z,6.50
2023-05-14T11:38:57.631Z,7.09
2023-05-14T11:40:01.374Z,7.20
2023-05-14T11:41:05.126Z,7.60
2023-05-14T11:42:14.075Z,8.10
2023-05-14T11:43:16.880Z,7.80
2023-05-14T11:44:19.259Z,7.00
2023-05-14T11:45:26.253Z,6.50
2023-05-14T11:46:30.246Z,6.50
2023-05-14T11:47:32.674Z,6.50
2023-05-14T11:48:35.655Z,6.50
2023-05-14T11:49:38.362Z,5.55
2023-05-14T11:50:43.927Z,7.27
2023-05-14T11:51:46.164Z,6.30
2023-05-14T11:52:50.551Z,6.90
2023-05-14T11:53:54.070Z,7.40
2023-05-14T11:54:56.494Z,6.60
2023-05-14T11:55:58.828Z,7.20
2023-05-14T11:57:04.352Z,6.60
2023-05-14T11:58:06.618Z,8.20
2023-05-14T11:59:11.234Z,6.50
2023-05-14T12:00:16.827Z,8.40
2023-05-14T12:01:19.594Z,7.30
2023-05-14T12:02:22.506Z,7.00
2023-05-14T12:03:27.003Z,4.50
2023-05-14T12:04:32.216Z,7.70
2023-05-14T12:05:39.701Z,7.10
2023-05-14T12:06:42.963Z,7.20
2023-05-14T12:07:45.827Z,7.70
2023-05-14T12:08:49.703Z,8.82
2023-05-14T12:09:52.074Z,6.70
2023-05-14T12:10:55.685Z,6.80
2023-05-14T12:11:59.728Z,7.70
2023-05-14T12:13:05.507Z,6.90
2023-05-14T12:15:23.415Z,7.90
2023-05-14T12:16:31.967Z,8.27
2023-05-14T12:17:34.229Z,5.80
2023-05-14T12:18:37.014Z,6.90
2023-05-14T12:19:42.267Z,7.30
2023-05-14T12:20:48.727Z,6.50
2023-05-14T12:21:51.096Z,8.20
2023-05-14T12:22:53.914Z,6.30
2023-05-14T12:24:01.625Z,6.90
2023-05-14T12:25:08.328Z,8.00
2023-05-14T12:26:12.187Z,7.60
2023-05-14T12:27:14.683Z,7.00
2023-05-14T12:28:18.208Z,8.20
2023-05-14T12:29:22.193Z,6.60
2023-05-14T12:30:24.576Z,5.30
2023-05-14T12:31:33.284Z,7.60
2023-05-14T12:32:41.103Z,7.10
2023-05-14T12:33:45.129Z,7.50
2023-05-14T12:34:47.092Z,6.70
2023-05-14T12:35:53.329Z,6.40
2023-05-14T12:36:56.282Z,6.70
2023-05-14T12:37:58.574Z,5.91
2023-05-14T12:39:03.199Z,7.60
2023-05-14T12:40:08.778Z,3.30
2023-05-14T12:41:11.212Z,7.50
2023-05-14T12:42:15.668Z,6.30
2023-05-14T12:43:18.190Z,5.60
2023-05-14T12:44:22.304Z,7.40
2023-05-14T12:45:26.175Z,6.60
2023-05-14T12:46:29.000Z,6.00
2023-05-14T12:47:31.819Z,6.50
2023-05-14T12:48:33.978Z,7.27
2023-05-14T12:49:40.247Z,6.10
2023-05-14T12:50:42.408Z,7.00
2023-05-14T12:51:46.320Z,6.60
2023-05-14T12:52:48.475Z,6.20
2023-05-14T12:53:51.585Z,6.40
2023-05-14T12:54:53.818Z,5.60
2023-05-14T12:55:56.137Z,7.40
2023-05-14T12:56:58.946Z,6.90
2023-05-14T12:58:01.606Z,6.73
2023-05-14T12:59:04.932Z,6.70
2023-05-14T13:00:14.203Z,7.40
2023-05-14T13:01:17.785Z,7.50
2023-05-14T13:02:22.148Z,6.60
2023-05-14T13:03:24.725Z,5.00
2023-05-14T13:04:27.133Z,7.09
2023-05-14T13:05:29.555Z,6.50
2023-05-14T13:06:32.399Z,8.90
2023-05-14T13:07:36.521Z,8.10
2023-05-14T13:08:39.427Z,6.00
2023-05-14T13:09:43.566Z,7.10
2023-05-14T13:10:46.433Z,6.50
2023-05-14T13:11:49.031Z,5.80
2023-05-14T13:12:52.048Z,6.50
2023-05-14T13:13:54.779Z,10.00
2023-05-14T13:14:57.134Z,8.60
2023-05-14T13:16:00.832Z,8.30
2023-05-14T13:17:04.919Z,9.70
2023-05-14T13:18:08.615Z,8.80
2023-05-14T13:19:11.255Z,9.40
2023-05-14T13:20:15.940Z,8.60
2023-05-14T13:21:18.671Z,8.10
2023-05-14T13:22:21.105Z,7.40
2023-05-14T13:23:25.862Z,8.20
2023-05-14T13:24:29.666Z,7.60
2023-05-14T13:25:32.640Z,7.90
2023-05-14T13:26:36.009Z,8.20
2023-05-14T13:27:38.322Z,6.80
2023-05-14T13:28:40.624Z,7.50
2023-05-14T13:29:43.312Z,9.40
2023-05-14T13:30:49.224Z,7.36
2023-05-14T13:31:52.392Z,8.00
2023-05-14T13:32:54.596Z,10.30
2023-05-14T13:33:59.667Z,8.40
2023-05-14T13:35:05.245Z,10.10
2023-05-14T13:36:08.895Z,6.40
2023-05-14T13:37:11.489Z,7.90
2023-05-14T13:38:15.029Z,6.80
2023-05-14T13:39:19.668Z,7.30
2023-05-14T13:40:22.113Z,8.30
2023-05-14T13:41:25.878Z,8.70
2023-05-14T13:42:28.250Z,7.80
2023-05-14T13:43:32.068Z,8.60
2023-05-14T13:44:35.639Z,7.40
2023-05-14T13:45:37.790Z,7.50
2023-05-14T13:46:40.176Z,2.90
2023-05-14T13:47:42.565Z,8.40
2023-05-14T13:48:44.913Z,8.20
2023-05-14T13:49:47.104Z,7.10
2023-05-14T13:50:50.620Z,6.70
2023-05-14T13:51:52.682Z,9.30
2023-05-14T13:52:55.758Z,6.30
2023-05-14T13:53:57.965Z,6.60
2023-05-14T13:55:00.279Z,6.60
2023-05-14T13:56:06.025Z,7.80
2023-05-14T13:57:08.948Z,8.40
2023-05-14T13:58:11.271Z,6.40
2023-05-14T13:59:14.502Z,7.40
2023-05-14T14:00:17.659Z,7.50
2023-05-14T14:01:20.183Z,7.40
2023-05-14T14:02:22.502Z,7.40
2023-05-14T14:03:24.971Z,7.60
2023-05-14T14:04:31.672Z,6.30
2023-05-14T14:06:45.839Z,6.60
2023-05-14T14:07:49.765Z,7.00
2023-05-14T14:08:53.511Z,6.40